Time,TemperatureF,DewpointF,PressureIn,WindDirection,WindDirectionDegrees,WindSpeedMPH,WindSpeedGustMPH,Humidity,HourlyPrecipIn,Conditions,Clouds,dailyrainin,SoftwareType,DateUTC
2013-09-19 00:12:00,50.5,49.0,30.09,SW,227,0.0,1.0,95,0.00,,,0.00,weatherlink.com 1.10,2013-09-19 04:12:00,
2013-09-19 00:27:00,50.2,49.0,30.09,SW,230,0.0,2.0,95,0.00,,,0.00,weatherlink.com 1.10,2013-09-19 04:27:00,
2013-09-19 00:42:00,50.2,49.0,30.09,SW,230,0.0,1.0,95,0.00,,,0.00,weatherlink.com 1.10,2013-09-19 04:42:00,
2013-09-19 00:57:00,49.9,49.0,30.09,SW,230,0.0,1.0,95,0.00,,,0.00,weatherlink.com 1.10,2013-09-19 04:57:00,
2013-09-19 01:12:00,49.6,48.0,30.09,SW,230,0.0,3.0,95,0.00,,,0.00,weatherlink.com 1.10,2013-09-19 05:12:00,
2013-09-19 01:27:00,49.1,48.0,30.09,SW,230,0.0,1.0,95,0.00,,,0.00,weatherlink.com 1.10,2013-09-19 05:27:00,
2013-09-19 01:42:00,49.0,48.0,30.09,SW,230,0.0,1.0,95,0.00,,,0.00,weatherlink.com 1.10,2013-09-19 05:42:00,
2013-09-19 01:57:00,49.0,48.0,30.09,WNW,289,0.0,4.0,95,0.00,,,0.00,weatherlink.com 1.10,2013-09-19 05:57:00,
2013-09-19 02:12:00,49.0,48.0,30.08,WNW,283,0.0,3.0,95,0.00,,,0.00,weatherlink.com 1.10,2013-09-19 06:12:00,
2013-09-19 02:27:00,48.8,48.0,30.09,WNW,296,0.0,4.0,95,0.00,,,0.00,weatherlink.com 1.10,2013-09-19 06:27:00,
2013-09-19 02:42:00,48.8,48.0,30.08,WNW,289,0.0,4.0,95,0.00,,,0.00,weatherlink.com 1.10,2013-09-19 06:42:00,
2013-09-19 02:57:00,48.5,47.0,30.08,WNW,289,0.0,1.0,95,0.00,,,0.00,weatherlink.com 1.10,2013-09-19 06:57:00,
2013-09-19 03:12:00,48.2,47.0,30.08,WNW,289,2.0,2.0,95,0.00,,,0.00,weatherlink.com 1.10,2013-09-19 07:12:00,
2013-09-19 03:27:00,48.1,47.0,30.08,NW,319,1.0,4.0,95,0.00,,,0.00,weatherlink.com 1.10,2013-09-19 07:27:00,
2013-09-19 03:42:00,48.2,47.0,30.08,WNW,292,0.0,3.0,95,0.00,,,0.00,weatherlink.com 1.10,2013-09-19 07:42:00,
2013-09-19 03:57:00,48.3,47.0,30.08,WNW,292,0.0,2.0,95,0.00,,,0.00,weatherlink.com 1.10,2013-09-19 07:57:00,
2013-09-19 04:12:00,47.8,47.0,30.08,WNW,292,0.0,0.0,95,0.00,,,0.00,weatherlink.com 1.10,2013-09-19 08:12:00,
2013-09-19 04:27:00,47.1,46.0,30.08,WNW,292,2.0,2.0,95,0.00,,,0.00,weatherlink.com 1.10,2013-09-19 08:27:00,
2013-09-19 04:42:00,46.6,45.0,30.09,WNW,292,0.0,0.0,95,0.00,,,0.00,weatherlink.com 1.10,2013-09-19 08:42:00,
2013-09-19 04:58:00,45.9,45.0,30.09,WNW,292,0.0,0.0,95,0.00,,,0.00,weatherlink.com 1.10,2013-09-19 08:58:00,
2013-09-19 05:13:00,45.6,44.0,30.09,WNW,292,0.0,2.0,95,0.00,,,0.00,weatherlink.com 1.10,2013-09-19 09:13:00,
2013-09-19 05:28:00,45.7,44.0,30.09,WNW,294,1.0,3.0,95,0.00,,,0.00,weatherlink.com 1.10,2013-09-19 09:28:00,
2013-09-19 05:43:00,46.0,45.0,30.09,WNW,294,0.0,1.0,95,0.00,,,0.00,weatherlink.com 1.10,2013-09-19 09:43:00,
2013-09-19 05:58:00,46.1,45.0,30.10,WNW,294,0.0,1.0,96,0.00,,,0.00,weatherlink.com 1.10,2013-09-19 09:58:00,
2013-09-19 06:13:00,46.0,45.0,30.10,WNW,294,0.0,0.0,96,0.00,,,0.00,weatherlink.com 1.10,2013-09-19 10:13:00,
2013-09-19 06:28:00,46.0,45.0,30.11,WNW,294,0.0,0.0,96,0.01,,,0.01,weatherlink.com 1.10,2013-09-19 10:28:00,
2013-09-19 06:43:00,46.0,45.0,30.11,WNW,294,0.0,0.0,96,0.01,,,0.01,weatherlink.com 1.10,2013-09-19 10:43:00,
2013-09-19 06:58:00,47.6,47.0,30.11,WNW,294,0.0,1.0,96,0.01,,,0.01,weatherlink.com 1.10,2013-09-19 10:58:00,
2013-09-19 07:13:00,49.5,49.0,30.12,WNW,294,0.0,3.0,97,0.01,,,0.01,weatherlink.com 1.10,2013-09-19 11:13:00,
2013-09-19 07:28:00,52.2,51.0,30.12,WNW,295,0.0,3.0,97,0.00,,,0.01,weatherlink.com 1.10,2013-09-19 11:28:00,
2013-09-19 07:43:00,54.4,54.0,30.12,NW,305,0.0,3.0,97,0.00,,,0.01,weatherlink.com 1.10,2013-09-19 11:43:00,
2013-09-19 07:58:00,56.2,55.0,30.12,NW,305,0.0,2.0,96,0.00,,,0.01,weatherlink.com 1.10,2013-09-19 11:58:00,
2013-09-19 08:13:00,58.3,57.0,30.12,NW,305,0.0,0.0,94,0.00,,,0.01,weatherlink.com 1.10,2013-09-19 12:13:00,
2013-09-19 08:28:00,60.9,57.0,30.12,NW,305,0.0,1.0,88,0.00,,,0.01,weatherlink.com 1.10,2013-09-19 12:28:00,
2013-09-19 08:43:00,63.3,56.0,30.12,NNE,26,3.0,5.0,76,0.00,,,0.01,weatherlink.com 1.10,2013-09-19 12:43:00,
2013-09-19 08:58:00,64.1,54.0,30.11,NNE,20,0.0,6.0,70,0.00,,,0.01,weatherlink.com 1.10,2013-09-19 12:58:00,
2013-09-19 09:13:00,65.7,55.0,30.12,North,355,0.0,3.0,69,0.00,,,0.01,weatherlink.com 1.10,2013-09-19 13:13:00,
2013-09-19 09:28:00,66.8,56.0,30.12,North,355,1.0,3.0,68,0.00,,,0.01,weatherlink.com 1.10,2013-09-19 13:28:00,
2013-09-19 09:43:00,68.4,57.0,30.12,NNW,346,0.0,2.0,66,0.00,,,0.01,weatherlink.com 1.10,2013-09-19 13:43:00,
2013-09-19 09:58:00,67.9,53.0,30.12,East,84,2.0,5.0,59,0.00,,,0.01,weatherlink.com 1.10,2013-09-19 13:58:00,
2013-09-19 10:13:00,68.0,52.0,30.12,ENE,66,2.0,5.0,58,0.00,,,0.01,weatherlink.com 1.10,2013-09-19 14:13:00,
2013-09-19 10:28:00,68.8,55.0,30.11,ENE,64,2.0,4.0,62,0.00,,,0.01,weatherlink.com 1.10,2013-09-19 14:28:00,
2013-09-19 10:43:00,68.3,51.0,30.11,East,91,2.0,5.0,54,0.00,,,0.01,weatherlink.com 1.10,2013-09-19 14:43:00,
2013-09-19 10:58:00,68.8,51.0,30.11,ENE,61,0.0,4.0,54,0.00,,,0.01,weatherlink.com 1.10,2013-09-19 14:58:00,
2013-09-19 11:14:00,70.1,52.0,30.11,East,81,3.0,5.0,52,0.00,,,0.01,weatherlink.com 1.10,2013-09-19 15:14:00,
2013-09-19 11:29:00,70.9,51.0,30.10,East,92,3.0,5.0,49,0.00,,,0.01,weatherlink.com 1.10,2013-09-19 15:29:00,
2013-09-19 11:44:00,71.3,49.0,30.09,ESE,109,3.0,6.0,45,0.00,,,0.01,weatherlink.com 1.10,2013-09-19 15:44:00,
2013-09-19 11:59:00,71.3,50.0,30.09,SSW,201,1.0,4.0,48,0.00,,,0.01,weatherlink.com 1.10,2013-09-19 15:59:00,
2013-09-19 12:14:00,68.9,49.0,30.09,SW,217,4.0,7.0,50,0.00,,,0.01,weatherlink.com 1.10,2013-09-19 16:14:00,
2013-09-19 12:29:00,68.5,51.0,30.09,South,182,2.0,5.0,53,0.00,,,0.01,weatherlink.com 1.10,2013-09-19 16:29:00,
2013-09-19 12:44:00,68.0,51.0,30.09,South,174,3.0,7.0,55,0.00,,,0.01,weatherlink.com 1.10,2013-09-19 16:44:00,
2013-09-19 12:59:00,68.3,54.0,30.08,SW,223,5.0,7.0,61,0.00,,,0.01,weatherlink.com 1.10,2013-09-19 16:59:00,
2013-09-19 13:14:00,68.9,51.0,30.08,SSW,193,3.0,6.0,53,0.00,,,0.01,weatherlink.com 1.10,2013-09-19 17:14:00,
2013-09-19 13:43:00,69.9,50.0,30.07,SSW,205,1.0,7.0,49,0.00,,,0.01,weatherlink.com 1.10,2013-09-19 17:43:00,
2013-09-19 13:58:00,71.0,51.0,30.06,SSE,163,3.0,7.0,49,0.00,,,0.01,weatherlink.com 1.10,2013-09-19 17:58:00,
2013-09-19 14:28:00,70.5,55.0,30.06,SW,220,3.0,8.0,58,0.00,,,0.01,weatherlink.com 1.10,2013-09-19 18:28:00,
2013-09-19 14:43:00,68.3,56.0,30.05,SW,221,6.0,7.0,65,0.00,,,0.01,weatherlink.com 1.10,2013-09-19 18:43:00,
2013-09-19 14:58:00,66.0,55.0,30.05,SW,219,5.0,7.0,68,0.00,,,0.01,weatherlink.com 1.10,2013-09-19 18:58:00,
2013-09-19 15:13:00,66.7,54.0,30.04,SSE,167,5.0,8.0,64,0.00,,,0.01,weatherlink.com 1.10,2013-09-19 19:13:00,
2013-09-19 15:28:00,66.8,54.0,30.04,South,182,5.0,9.0,64,0.00,,,0.01,weatherlink.com 1.10,2013-09-19 19:28:00,
2013-09-19 15:43:00,67.4,56.0,30.03,SSW,209,0.0,7.0,66,0.00,,,0.01,weatherlink.com 1.10,2013-09-19 19:43:00,
2013-09-19 15:58:00,66.9,54.0,30.03,SSW,207,3.0,9.0,64,0.00,,,0.01,weatherlink.com 1.10,2013-09-19 19:58:00,
2013-09-19 16:13:00,66.9,54.0,30.03,SSW,208,6.0,8.0,64,0.00,,,0.01,weatherlink.com 1.10,2013-09-19 20:13:00,
2013-09-19 16:28:00,67.1,54.0,30.02,SSW,206,5.0,7.0,64,0.00,,,0.01,weatherlink.com 1.10,2013-09-19 20:28:00,
2013-09-19 16:43:00,66.2,56.0,30.02,SW,228,2.0,7.0,69,0.00,,,0.01,weatherlink.com 1.10,2013-09-19 20:43:00,
2013-09-19 16:58:00,64.4,54.0,30.02,SW,221,5.0,6.0,70,0.00,,,0.01,weatherlink.com 1.10,2013-09-19 20:58:00,
2013-09-19 17:13:00,63.5,55.0,30.02,South,185,4.0,7.0,73,0.00,,,0.01,weatherlink.com 1.10,2013-09-19 21:13:00,
2013-09-19 17:28:00,62.9,55.0,30.02,South,177,2.0,5.0,76,0.00,,,0.01,weatherlink.com 1.10,2013-09-19 21:28:00,
2013-09-19 17:43:00,62.2,55.0,30.02,SW,232,4.0,6.0,77,0.00,,,0.01,weatherlink.com 1.10,2013-09-19 21:43:00,
2013-09-19 17:58:00,61.5,55.0,30.02,SSW,211,4.0,6.0,78,0.00,,,0.01,weatherlink.com 1.10,2013-09-19 21:58:00,
2013-09-19 18:13:00,61.0,54.0,30.02,SSW,211,2.0,5.0,78,0.00,,,0.01,weatherlink.com 1.10,2013-09-19 22:13:00,
2013-09-19 18:28:00,60.6,54.0,30.02,SW,227,2.0,4.0,79,0.00,,,0.01,weatherlink.com 1.10,2013-09-19 22:28:00,
2013-09-19 18:43:00,59.6,53.0,30.02,SSW,204,0.0,3.0,80,0.00,,,0.01,weatherlink.com 1.10,2013-09-19 22:43:00,
2013-09-19 18:58:00,58.6,54.0,30.02,SSW,204,2.0,3.0,83,0.00,,,0.01,weatherlink.com 1.10,2013-09-19 22:58:00,
2013-09-19 19:13:00,57.3,53.0,30.02,SSW,204,0.0,4.0,85,0.00,,,0.01,weatherlink.com 1.10,2013-09-19 23:13:00,
2013-09-19 19:28:00,56.5,53.0,30.03,SSW,204,0.0,1.0,88,0.00,,,0.01,weatherlink.com 1.10,2013-09-19 23:28:00,
2013-09-19 19:43:00,56.5,53.0,30.03,SSW,204,0.0,3.0,89,0.00,,,0.01,weatherlink.com 1.10,2013-09-19 23:43:00,
2013-09-19 19:58:00,56.7,54.0,30.03,SSW,204,0.0,4.0,90,0.00,,,0.01,weatherlink.com 1.10,2013-09-19 23:58:00,
2013-09-19 20:13:00,56.8,54.0,30.03,SSW,201,0.0,5.0,90,0.00,,,0.01,weatherlink.com 1.10,2013-09-20 00:13:00,
2013-09-19 20:28:00,56.6,54.0,30.03,SW,214,4.0,4.0,91,0.00,,,0.01,weatherlink.com 1.10,2013-09-20 00:28:00,
2013-09-19 20:43:00,57.1,55.0,30.04,SW,236,0.0,6.0,93,0.00,,,0.01,weatherlink.com 1.10,2013-09-20 00:43:00,
2013-09-19 20:58:00,57.5,56.0,30.04,SSW,211,3.0,5.0,93,0.00,,,0.01,weatherlink.com 1.10,2013-09-20 00:58:00,
2013-09-19 21:13:00,57.2,55.0,30.03,SW,218,2.0,5.0,93,0.00,,,0.01,weatherlink.com 1.10,2013-09-20 01:13:00,
2013-09-19 21:28:00,57.2,55.0,30.04,SSW,213,0.0,5.0,93,0.00,,,0.01,weatherlink.com 1.10,2013-09-20 01:28:00,
2013-09-19 21:43:00,57.0,55.0,30.04,SSW,200,0.0,4.0,94,0.00,,,0.01,weatherlink.com 1.10,2013-09-20 01:43:00,
2013-09-19 21:58:00,56.9,55.0,30.04,SSW,200,0.0,3.0,94,0.00,,,0.01,weatherlink.com 1.10,2013-09-20 01:58:00,
2013-09-19 22:13:00,55.6,54.0,30.04,SSW,200,0.0,3.0,93,0.00,,,0.01,weatherlink.com 1.10,2013-09-20 02:13:00,
2013-09-19 22:28:00,55.1,53.0,30.05,SSW,200,0.0,0.0,93,0.00,,,0.01,weatherlink.com 1.10,2013-09-20 02:28:00,
2013-09-19 22:43:00,54.9,53.0,30.04,SSW,200,0.0,1.0,94,0.00,,,0.01,weatherlink.com 1.10,2013-09-20 02:43:00,
2013-09-19 22:58:00,54.5,53.0,30.04,SSW,200,0.0,0.0,94,0.00,,,0.01,weatherlink.com 1.10,2013-09-20 02:58:00,
2013-09-19 23:13:00,53.9,52.0,30.04,SSW,200,0.0,0.0,94,0.00,,,0.01,weatherlink.com 1.10,2013-09-20 03:13:00,
2013-09-19 23:28:00,53.4,52.0,30.04,SSW,200,0.0,0.0,94,0.00,,,0.01,weatherlink.com 1.10,2013-09-20 03:28:00,
2013-09-19 23:43:00,52.7,51.0,30.04,SSW,200,0.0,0.0,94,0.00,,,0.01,weatherlink.com 1.10,2013-09-20 03:43:00,
2013-09-19 23:58:00,52.3,51.0,30.03,SSW,200,2.0,3.0,94,0.00,,,0.00,weatherlink.com 1.10,2013-09-20 03:58:00,